Time;durP1;ratioP1;P1;durP2;ratioP2;P2;SDS_P1;SDS_P2;PMS_P1;PMS_P2;Temp;Humidity;BMP_temperature;BMP_pressure;BME280_temperature;BME280_humidity;BME280_pressure;Samples;Min_cycle;Max_cycle;Signal;HPM_P1;HPM_P2
2021/06/07 00:00:52;;;;;;;24.52;18.00;;;17.20;75.60;;;;;;5007317;28;20410;-77
2021/06/07 00:03:18;;;;;;;26.23;18.60;;;17.10;77.30;;;;;;4991345;28;20433;-77
2021/06/07 00:05:44;;;;;;;25.00;17.43;;;17.20;77.30;;;;;;4991686;28;20392;-76
2021/06/07 00:08:09;;;;;;;23.73;16.90;;;17.20;75.30;;;;;;4991742;28;20395;-76
2021/06/07 00:10:35;;;;;;;20.53;16.97;;;17.30;75.20;;;;;;5006343;28;20722;-76
2021/06/07 00:13:02;;;;;;;23.60;16.70;;;17.20;75.60;;;;;;4991741;28;20444;-77
2021/06/07 00:15:30;;;;;;;24.85;16.70;;;17.20;76.10;;;;;;5006412;28;20399;-77
2021/06/07 00:17:56;;;;;;;21.48;16.33;;;17.20;75.30;;;;;;4991477;28;20414;-77
2021/06/07 00:20:30;;;;;;;21.45;16.52;;;17.20;75.50;;;;;;5006735;28;20433;-77
2021/06/07 00:22:57;;;;;;;23.65;16.83;;;17.20;76.30;;;;;;4991412;28;20386;-76
2021/06/07 00:26:09;;;;;;;27.27;17.42;;;17.10;76.50;;;;;;4991417;28;20851;-76
2021/06/07 00:28:36;;;;;;;21.08;16.05;;;17.00;77.00;;;;;;4989945;28;20398;-76
2021/06/07 00:31:05;;;;;;;21.23;15.45;;;17.00;77.70;;;;;;4991253;28;20414;-76
2021/06/07 00:33:31;;;;;;;22.98;17.13;;;16.90;77.80;;;;;;4990890;28;20443;-77
2021/06/07 00:35:57;;;;;;;20.35;16.77;;;16.80;78.30;;;;;;4991141;28;20385;-77
2021/06/07 00:38:22;;;;;;;25.13;17.83;;;16.80;79.40;;;;;;4991114;28;20470;-76
2021/06/07 00:40:48;;;;;;;24.48;16.92;;;16.80;79.10;;;;;;4991150;28;20391;-77
2021/06/07 00:43:14;;;;;;;25.52;17.65;;;16.70;79.50;;;;;;4990741;28;20399;-77
2021/06/07 00:45:40;;;;;;;22.23;17.73;;;16.70;80.30;;;;;;4991460;28;20414;-77
2021/06/07 00:48:08;;;;;;;26.80;16.97;;;16.60;81.00;;;;;;5006603;28;20431;-76
2021/06/07 00:50:41;;;;;;;27.15;17.38;;;16.60;81.60;;;;;;4991147;28;20767;-76
2021/06/07 00:53:10;;;;;;;24.25;16.83;;;16.60;81.40;;;;;;4990065;28;20398;-75
2021/06/07 00:55:38;;;;;;;24.55;17.95;;;16.70;80.40;;;;;;4990998;28;20391;-75
2021/06/07 00:58:06;;;;;;;27.48;18.05;;;16.70;80.10;;;;;;5006062;28;20410;-76
2021/06/07 01:00:32;;;;;;;24.92;16.92;;;16.70;80.10;;;;;;4991134;28;20386;-76
2021/06/07 01:02:59;;;;;;;27.33;19.08;;;16.70;79.40;;;;;;4990610;28;20481;-76
2021/06/07 01:05:27;;;;;;;26.38;19.20;;;16.80;79.30;;;;;;4979353;28;20416;-77
2021/06/07 01:07:53;;;;;;;23.87;19.10;;;16.80;79.10;;;;;;4991026;28;20501;-76
2021/06/07 01:10:18;;;;;;;25.70;19.02;;;16.80;79.20;;;;;;5005737;28;20434;-76
2021/06/07 01:12:44;;;;;;;27.90;21.05;;;16.80;78.90;;;;;;5005666;28;20920;-75
2021/06/07 01:15:11;;;;;;;27.05;20.00;;;16.80;78.40;;;;;;4990573;28;20398;-76
2021/06/07 01:17:36;;;;;;;32.00;20.60;;;16.80;78.20;;;;;;4990921;28;20386;-76
2021/06/07 01:20:05;;;;;;;27.90;20.47;;;16.80;78.60;;;;;;5005950;28;20418;-76
2021/06/07 01:22:31;;;;;;;31.38;21.20;;;16.80;78.20;;;;;;5005815;28;20488;-76
2021/06/07 01:24:57;;;;;;;28.88;20.98;;;16.80;78.10;;;;;;4993263;28;20459;-76
2021/06/07 01:27:23;;;;;;;29.65;21.25;;;16.80;78.40;;;;;;5010185;28;20376;-76
2021/06/07 01:29:49;;;;;;;26.83;20.35;;;16.80;78.50;;;;;;5010378;28;20821;-75
2021/06/07 01:32:15;;;;;;;27.05;20.50;;;16.80;78.00;;;;;;5008961;28;20385;-75
2021/06/07 01:34:41;;;;;;;27.73;20.58;;;16.80;79.50;;;;;;5009057;28;20366;-75
2021/06/07 01:37:07;;;;;;;28.58;20.58;;;16.80;78.70;;;;;;4985084;28;20400;-75
2021/06/07 01:39:32;;;;;;;31.30;19.77;;;16.80;78.70;;;;;;4971404;28;20472;-75
2021/06/07 01:41:58;;;;;;;28.20;19.80;;;16.80;78.70;;;;;;4986116;28;20407;-75
2021/06/07 01:44:23;;;;;;;29.10;20.93;;;16.80;78.60;;;;;;4970903;28;20994;-76
2021/06/07 01:46:50;;;;;;;29.90;21.38;;;16.60;80.00;;;;;;4988605;28;20886;-75
2021/06/07 01:49:16;;;;;;;33.47;21.48;;;16.50;81.70;;;;;;4990351;28;20405;-76
2021/06/07 01:51:42;;;;;;;29.58;21.38;;;16.50;81.50;;;;;;4990296;28;20382;-75
2021/06/07 01:54:08;;;;;;;31.10;20.90;;;16.50;82.20;;;;;;4989991;28;20514;-76
2021/06/07 01:56:35;;;;;;;26.83;20.27;;;16.50;82.20;;;;;;4990253;28;20489;-75
2021/06/07 01:59:01;;;;;;;26.90;20.20;;;16.50;82.00;;;;;;4990856;28;20393;-76
2021/06/07 02:01:28;;;;;;;28.10;21.60;;;16.40;82.50;;;;;;5005724;28;20855;-77
2021/06/07 02:03:53;;;;;;;32.22;22.13;;;16.40;82.80;;;;;;4990559;28;20386;-76
2021/06/07 02:06:22;;;;;;;32.23;22.70;;;16.30;83.40;;;;;;5007903;28;20524;-75
2021/06/07 02:08:49;;;;;;;32.50;22.25;;;16.30;84.40;;;;;;4993761;28;20861;-76
2021/06/07 02:11:20;;;;;;;31.45;22.40;;;16.30;84.40;;;;;;5005769;28;20801;-75
2021/06/07 02:13:48;;;;;;;35.03;23.02;;;16.30;84.40;;;;;;4993646;28;20383;-75
2021/06/07 02:16:22;;;;;;;38.50;24.00;;;16.30;84.80;;;;;;4993439;28;20413;-75
2021/06/07 02:18:48;;;;;;;36.85;24.38;;;16.30;84.50;;;;;;4993733;28;20392;-75
2021/06/07 02:21:16;;;;;;;38.05;24.60;;;16.30;84.80;;;;;;4993689;28;20465;-76
2021/06/07 02:23:42;;;;;;;36.55;24.38;;;16.20;85.30;;;;;;5008573;28;20403;-75
2021/06/07 02:26:08;;;;;;;40.67;25.40;;;16.20;85.50;;;;;;4993529;28;20810;-76
2021/06/07 02:28:35;;;;;;;38.35;25.10;;;16.30;84.90;;;;;;4993498;28;20390;-75
2021/06/07 02:31:01;;;;;;;39.25;25.38;;;16.40;85.10;;;;;;4994072;28;20418;-76
2021/06/07 02:33:27;;;;;;;36.33;23.92;;;16.40;84.60;;;;;;4993172;28;20485;-76
2021/06/07 02:35:53;;;;;;;37.20;25.10;;;16.50;84.20;;;;;;4993498;28;20448;-76
2021/06/07 02:38:19;;;;;;;41.07;26.03;;;16.50;83.90;;;;;;4981574;28;20422;-76
2021/06/07 02:40:47;;;;;;;40.22;25.25;;;16.50;84.10;;;;;;4993091;28;20386;-76
2021/06/07 02:43:13;;;;;;;42.33;25.60;;;16.50;84.00;;;;;;4992011;28;20414;-75
2021/06/07 02:45:40;;;;;;;41.78;26.38;;;16.60;83.40;;;;;;5021043;22;20916;-80
2021/06/07 02:48:06;;;;;;;42.92;26.70;;;16.60;83.10;;;;;;5014238;28;20393;-81
2021/06/07 02:50:36;;;;;;;43.20;27.27;;;16.60;82.70;;;;;;5006643;28;20406;-81
2021/06/07 02:53:02;;;;;;;49.55;28.65;;;16.60;83.00;;;;;;5010524;28;20390;-82
2021/06/07 02:55:32;;;;;;;47.97;28.83;;;16.60;82.90;;;;;;4988777;28;20387;-79
2021/06/07 02:57:59;;;;;;;49.67;28.08;;;16.60;83.10;;;;;;5009945;28;20386;-78
2021/06/07 03:00:29;;;;;;;47.40;29.40;;;16.60;82.70;;;;;;4999677;28;20882;-79
2021/06/07 03:02:57;;;;;;;48.50;29.58;;;16.60;83.10;;;;;;5011315;28;20414;-81
2021/06/07 03:05:23;;;;;;;46.83;29.63;;;16.40;83.40;;;;;;4999754;28;20576;-79
2021/06/07 03:07:49;;;;;;;43.50;28.83;;;16.70;83.20;;;;;;4997752;28;20395;-81
2021/06/07 03:10:15;;;;;;;46.53;27.73;;;16.70;83.70;;;;;;4968639;28;20446;-80
2021/06/07 03:12:41;;;;;;;46.97;29.23;;;16.70;82.90;;;;;;4999155;28;20474;-82
2021/06/07 03:15:09;;;;;;;48.00;28.43;;;16.80;81.90;;;;;;4999225;28;20390;-82
2021/06/07 03:17:34;;;;;;;48.80;29.40;;;16.80;81.70;;;;;;4998977;28;20473;-80
2021/06/07 03:20:00;;;;;;;49.87;28.70;;;16.80;81.50;;;;;;4994846;28;20411;-80
2021/06/07 03:22:26;;;;;;;43.47;27.73;;;16.80;81.20;;;;;;4993114;28;20388;-78
2021/06/07 03:24:53;;;;;;;45.30;30.00;;;16.80;82.20;;;;;;4983681;28;20400;-83
2021/06/07 03:27:19;;;;;;;48.88;29.10;;;16.80;82.00;;;;;;4986718;28;20411;-81
2021/06/07 03:29:45;;;;;;;43.92;27.95;;;16.80;82.70;;;;;;4988631;28;20426;-83
2021/06/07 03:32:11;;;;;;;41.50;25.55;;;16.80;81.70;;;;;;4982023;28;20398;-82
2021/06/07 03:34:38;;;;;;;38.72;26.02;;;17.00;79.90;;;;;;4999481;28;20390;-80
2021/06/07 03:37:05;;;;;;;43.07;26.03;;;17.00;79.70;;;;;;4993230;28;20825;-83
2021/06/07 03:39:30;;;;;;;38.45;25.45;;;17.00;79.50;;;;;;4984617;28;20482;-78
2021/06/07 03:41:56;;;;;;;37.33;25.30;;;17.00;78.80;;;;;;4984867;28;20407;-79
2021/06/07 03:44:22;;;;;;;43.07;27.40;;;17.00;78.30;;;;;;4979344;28;20474;-80
2021/06/07 03:46:48;;;;;;;48.10;27.03;;;16.90;79.00;;;;;;4971531;28;20411;-80
2021/06/07 03:49:14;;;;;;;42.78;27.17;;;16.90;79.10;;;;;;4993208;28;20413;-79
2021/06/07 03:51:40;;;;;;;44.75;28.55;;;16.90;79.40;;;;;;5006335;28;20397;-80
2021/06/07 03:54:06;;;;;;;45.42;28.08;;;16.80;79.00;;;;;;4997362;28;20387;-81
2021/06/07 03:56:31;;;;;;;47.00;28.13;;;16.80;79.30;;;;;;4997259;28;20413;-83
2021/06/07 03:58:57;;;;;;;53.97;29.05;;;16.80;78.90;;;;;;4999183;28;20382;-82
2021/06/07 04:01:22;;;;;;;47.90;29.23;;;16.80;78.20;;;;;;4984298;28;20395;-82
2021/06/07 04:03:48;;;;;;;53.93;30.77;;;16.80;78.50;;;;;;5003462;28;20472;-81
2021/06/07 04:06:16;;;;;;;54.27;30.47;;;16.80;78.30;;;;;;5002635;28;20382;-80
2021/06/07 04:08:42;;;;;;;56.42;31.20;;;16.80;78.70;;;;;;4993037;28;20774;-81
2021/06/07 04:11:10;;;;;;;52.05;29.92;;;16.80;76.90;;;;;;4995479;28;20894;-82
2021/06/07 04:13:35;;;;;;;54.40;32.08;;;17.60;77.40;;;;;;4984610;28;20389;-83
2021/06/07 04:16:01;;;;;;;62.97;32.33;;;16.70;77.20;;;;;;4986175;28;20403;-79
2021/06/07 04:18:27;;;;;;;56.40;30.80;;;16.70;77.50;;;;;;4981004;28;20395;-79
2021/06/07 04:20:53;;;;;;;57.20;32.30;;;16.60;76.50;;;;;;4994332;28;20475;-81
2021/06/07 04:23:18;;;;;;;53.65;30.92;;;16.60;76.20;;;;;;4996330;28;20409;-81
2021/06/07 04:25:44;;;;;;;51.07;28.93;;;16.70;76.10;;;;;;4997639;28;20467;-82
2021/06/07 04:28:10;;;;;;;59.95;33.05;;;16.60;74.20;;;;;;5000706;28;20481;-82
2021/06/07 04:30:35;;;;;;;53.58;31.85;;;16.60;74.80;;;;;;4986040;28;20422;-84
2021/06/07 04:33:02;;;;;;;56.78;31.85;;;16.60;75.20;;;;;;5004345;28;20393;-82
2021/06/07 04:35:28;;;;;;;55.03;31.20;;;16.70;73.60;;;;;;4992535;28;20402;-81
2021/06/07 04:37:54;;;;;;;53.30;31.13;;;16.90;71.30;;;;;;5001332;28;20419;-83
2021/06/07 04:40:23;;;;;;;54.72;31.73;;;16.90;70.40;;;;;;4998620;28;20402;-79
2021/06/07 04:42:50;;;;;;;59.28;31.65;;;16.90;70.50;;;;;;4990983;28;20402;-77
2021/06/07 04:45:17;;;;;;;50.72;30.23;;;16.90;69.70;;;;;;4991340;28;20410;-76
2021/06/07 04:47:43;;;;;;;52.67;30.95;;;16.90;69.00;;;;;;4990398;28;20402;-76
2021/06/07 04:50:11;;;;;;;47.57;28.93;;;16.90;68.30;;;;;;4989519;28;20402;-76
2021/06/07 04:52:56;;;;;;;46.00;30.10;;;17.00;67.50;;;;;;4991659;28;20410;-75
2021/06/07 04:55:43;;;;;;;42.13;27.27;;;17.00;67.40;;;;;;4973200;28;20400;-75
2021/06/07 04:58:16;;;;;;;54.47;29.15;;;17.20;66.20;;;;;;4955922;28;20408;-76
2021/06/07 05:00:45;;;;;;;47.13;29.33;;;17.20;64.70;;;;;;4971007;28;20396;-76
2021/06/07 05:03:10;;;;;;;46.08;28.15;;;17.10;65.10;;;;;;4971779;28;20868;-76
2021/06/07 05:05:36;;;;;;;48.83;27.88;;;17.20;65.00;;;;;;4954629;28;20503;-77
2021/06/07 05:08:03;;;;;;;47.90;27.88;;;17.20;65.10;;;;;;4974274;28;20924;-76
2021/06/07 05:10:28;;;;;;;49.75;27.83;;;17.30;66.00;;;;;;4994952;28;20563;-75
2021/06/07 05:12:54;;;;;;;48.03;28.47;;;17.40;63.60;;;;;;4991797;28;20422;-77
2021/06/07 05:15:20;;;;;;;44.60;26.93;;;17.50;62.80;;;;;;4991205;28;20405;-76
2021/06/07 05:17:46;;;;;;;44.33;27.17;;;17.60;61.30;;;;;;4991013;28;20802;-77
2021/06/07 05:20:17;;;;;;;49.27;27.90;;;17.60;61.40;;;;;;4991500;28;20958;-77
2021/06/07 05:22:43;;;;;;;47.63;28.83;;;17.60;60.90;;;;;;4991538;28;20409;-78
2021/06/07 05:25:10;;;;;;;43.40;28.20;;;17.60;60.80;;;;;;4991205;28;20394;-75
2021/06/07 05:27:35;;;;;;;48.72;30.95;;;17.40;62.60;;;;;;4979548;28;20431;-76
2021/06/07 05:30:03;;;;;;;49.97;29.80;;;17.40;62.80;;;;;;4971645;28;20490;-76
2021/06/07 05:32:29;;;;;;;51.85;30.05;;;17.40;62.40;;;;;;4972286;28;20424;-77
2021/06/07 05:34:55;;;;;;;49.80;29.02;;;17.40;62.60;;;;;;4971630;28;20420;-76
2021/06/07 05:37:21;;;;;;;49.15;29.33;;;17.30;63.60;;;;;;4972057;28;20400;-75
2021/06/07 05:39:51;;;;;;;51.42;31.83;;;17.30;63.90;;;;;;4974726;28;20382;-75
2021/06/07 05:42:17;;;;;;;54.55;31.23;;;17.40;63.20;;;;;;4977269;28;20411;-77
2021/06/07 05:44:43;;;;;;;54.00;29.92;;;17.50;63.30;;;;;;4987598;28;20433;-75
2021/06/07 05:47:08;;;;;;;54.00;31.27;;;17.50;62.00;;;;;;4983707;28;20407;-76
2021/06/07 05:49:40;;;;;;;54.73;32.20;;;17.60;61.90;;;;;;4988282;28;20414;-77
2021/06/07 05:52:08;;;;;;;56.53;32.25;;;17.60;61.60;;;;;;4987005;28;20910;-76
2021/06/07 05:54:35;;;;;;;57.60;32.40;;;17.70;61.30;;;;;;4989334;28;20426;-76
2021/06/07 05:57:01;;;;;;;52.10;32.45;;;17.60;61.10;;;;;;4984416;28;20406;-76
2021/06/07 05:59:27;;;;;;;56.58;34.03;;;17.60;61.60;;;;;;4966114;28;20425;-76
2021/06/07 06:01:53;;;;;;;63.77;38.20;;;17.50;62.20;;;;;;4993741;28;20907;-75
2021/06/07 06:04:18;;;;;;;63.93;38.17;;;17.50;62.80;;;;;;4991182;28;20482;-75
2021/06/07 06:06:44;;;;;;;73.38;38.20;;;17.60;63.00;;;;;;4994532;28;20409;-75
2021/06/07 06:09:10;;;;;;;75.00;43.10;;;17.70;61.40;;;;;;4968198;28;20456;-76
2021/06/07 06:11:36;;;;;;;69.72;44.60;;;17.80;61.30;;;;;;4989891;28;20423;-76
2021/06/07 06:14:02;;;;;;;74.43;44.20;;;18.00;59.40;;;;;;4976841;28;20767;-77
2021/06/07 06:16:28;;;;;;;67.60;39.17;;;18.20;58.00;;;;;;4962452;28;20406;-78
2021/06/07 06:18:54;;;;;;;55.60;35.23;;;18.40;56.50;;;;;;4981549;28;20428;-77
2021/06/07 06:21:19;;;;;;;56.43;35.47;;;18.50;54.70;;;;;;4988033;28;20427;-75
2021/06/07 06:23:45;;;;;;;53.83;33.63;;;18.50;55.10;;;;;;4997172;28;20397;-76
2021/06/07 06:26:11;;;;;;;58.00;34.83;;;18.60;54.40;;;;;;4996124;28;20402;-75
2021/06/07 06:28:38;;;;;;;55.33;35.13;;;18.60;54.90;;;;;;5002111;28;20396;-78
2021/06/07 06:31:05;;;;;;;55.78;35.53;;;18.60;55.50;;;;;;4993750;28;20511;-87
2021/06/07 06:33:31;;;;;;;48.47;32.37;;;18.80;54.60;;;;;;4981519;28;20956;-78
2021/06/07 06:35:57;;;;;;;54.05;33.47;;;18.90;53.60;;;;;;4983502;28;20483;-79
2021/06/07 06:38:24;;;;;;;52.85;32.90;;;19.10;52.80;;;;;;5008493;28;20383;-75
2021/06/07 06:40:52;;;;;;;56.80;33.77;;;19.10;51.10;;;;;;5003604;28;20426;-77
2021/06/07 06:43:18;;;;;;;60.63;36.10;;;19.00;51.60;;;;;;5008039;28;20406;-76
2021/06/07 06:45:43;;;;;;;59.63;36.97;;;18.90;53.50;;;;;;5004771;28;20409;-77
2021/06/07 06:48:09;;;;;;;56.63;34.10;;;18.80;54.30;;;;;;4982241;28;20426;-76
2021/06/07 06:50:38;;;;;;;63.30;37.55;;;18.70;54.70;;;;;;4980857;28;20414;-77
2021/06/07 06:53:07;;;;;;;64.85;40.10;;;18.60;55.40;;;;;;4997165;28;20398;-77
2021/06/07 06:55:33;;;;;;;66.20;41.33;;;18.60;55.10;;;;;;4973708;28;20463;-74
2021/06/07 06:57:59;;;;;;;65.40;42.20;;;18.50;55.60;;;;;;4988741;28;20399;-77
2021/06/07 07:00:25;;;;;;;72.72;44.28;;;18.20;57.60;;;;;;4996132;28;20421;-75
2021/06/07 07:02:50;;;;;;;64.28;42.20;;;18.20;58.90;;;;;;4986992;28;20436;-77
2021/06/07 07:05:16;;;;;;;70.55;42.80;;;18.30;58.80;;;;;;4989505;28;20910;-79
2021/06/07 07:07:42;;;;;;;67.43;43.15;;;18.50;57.40;;;;;;4969552;28;20495;-78
2021/06/07 07:10:08;;;;;;;73.53;44.13;;;18.70;55.50;;;;;;4997155;28;20497;-76
2021/06/07 07:12:34;;;;;;;74.75;47.22;;;18.40;56.40;;;;;;4980498;28;20394;-78
2021/06/07 07:15:00;;;;;;;82.30;46.45;;;18.30;58.30;;;;;;4997785;28;20434;-80
2021/06/07 07:17:27;;;;;;;74.32;43.65;;;18.40;57.70;;;;;;4996397;28;20453;-77
2021/06/07 07:19:53;;;;;;;79.28;45.15;;;18.70;55.50;;;;;;4997214;28;20398;-79
2021/06/07 07:22:19;;;;;;;75.67;46.03;;;18.80;55.00;;;;;;4997839;28;20496;-77
2021/06/07 07:24:46;;;;;;;79.07;44.70;;;18.90;53.60;;;;;;5002212;28;20501;-75
2021/06/07 07:27:14;;;;;;;81.60;48.28;;;18.80;54.80;;;;;;4982221;28;20435;-78
2021/06/07 07:29:40;;;;;;;83.88;46.15;;;18.80;54.90;;;;;;4986793;28;20896;-79
2021/06/07 07:32:07;;;;;;;80.85;48.38;;;18.80;53.60;;;;;;4985864;28;20458;-79
2021/06/07 07:34:33;;;;;;;79.38;48.80;;;18.70;53.80;;;;;;4992441;28;20558;-77
2021/06/07 07:37:00;;;;;;;91.30;49.15;;;18.70;54.50;;;;;;4992629;28;20463;-78
2021/06/07 07:39:26;;;;;;;80.03;50.65;;;18.80;54.20;;;;;;4980847;28;20609;-75
2021/06/07 07:41:52;;;;;;;83.63;50.28;;;18.90;53.00;;;;;;4977564;28;20422;-75
2021/06/07 07:44:17;;;;;;;86.45;50.88;;;19.10;52.20;;;;;;4982910;28;20922;-77
2021/06/07 07:46:43;;;;;;;77.32;47.33;;;19.40;50.70;;;;;;4988795;28;20456;-81
2021/06/07 07:49:09;;;;;;;80.43;50.03;;;19.60;49.10;;;;;;4990781;28;20457;-75
2021/06/07 07:51:35;;;;;;;82.55;48.83;;;19.50;49.60;;;;;;4987212;28;20416;-80
2021/06/07 07:54:00;;;;;;;73.73;42.30;;;19.80;48.20;;;;;;4972028;28;20959;-77
2021/06/07 07:56:26;;;;;;;58.27;39.23;;;20.00;45.40;;;;;;4994370;28;20833;-76
2021/06/07 07:58:51;;;;;;;61.83;41.10;;;20.30;43.40;;;;;;4987945;28;20424;-77
2021/06/07 08:01:17;;;;;;;52.97;36.83;;;20.60;42.80;;;;;;4977673;28;20493;-76
2021/06/07 08:03:43;;;;;;;65.63;39.30;;;20.90;40.10;;;;;;4984565;28;20575;-76
2021/06/07 08:06:08;;;;;;;56.97;39.63;;;21.10;40.30;;;;;;4975137;28;20410;-78
2021/06/07 08:08:35;;;;;;;50.03;35.63;;;21.00;39.40;;;;;;4987843;28;20392;-77
2021/06/07 08:11:01;;;;;;;54.33;37.33;;;20.50;39.90;;;;;;4981071;28;20421;-76
2021/06/07 08:13:26;;;;;;;56.37;37.40;;;20.20;43.60;;;;;;4981220;28;20757;-75
2021/06/07 08:15:52;;;;;;;58.03;39.40;;;20.00;43.90;;;;;;4978881;28;20430;-76
2021/06/07 08:18:18;;;;;;;69.00;41.60;;;20.20;43.90;;;;;;4985190;28;20529;-77
2021/06/07 08:20:44;;;;;;;57.67;38.78;;;20.60;43.60;;;;;;4986641;28;20425;-76
2021/06/07 08:23:10;;;;;;;57.13;37.83;;;21.20;39.60;;;;;;4976887;28;20404;-76
2021/06/07 08:25:36;;;;;;;56.40;39.90;;;21.40;38.40;;;;;;4979113;28;20899;-78
2021/06/07 08:28:01;;;;;;;58.30;36.53;;;21.40;37.70;;;;;;4986943;28;20462;-76
2021/06/07 08:30:29;;;;;;;58.05;38.15;;;21.10;38.60;;;;;;4985089;28;20518;-77
2021/06/07 08:32:55;;;;;;;61.15;40.55;;;20.40;40.70;;;;;;4979193;28;20422;-78
2021/06/07 08:35:21;;;;;;;57.72;40.28;;;20.00;43.20;;;;;;4996925;28;20486;-82
2021/06/07 08:37:47;;;;;;;59.95;40.40;;;20.10;43.90;;;;;;4986300;28;20737;-78
2021/06/07 08:40:15;;;;;;;62.85;40.22;;;20.50;41.20;;;;;;4978587;28;20769;-81
2021/06/07 08:42:42;;;;;;;44.70;31.50;;;20.80;39.70;;;;;;4979161;28;20414;-81
2021/06/07 08:45:11;;;;;;;44.50;32.10;;;21.20;38.70;;;;;;5000973;23;20833;-76
2021/06/07 08:47:39;;;;;;;51.08;36.13;;;21.10;37.80;;;;;;5011457;28;20865;-76
2021/06/07 08:50:06;;;;;;;64.22;39.75;;;20.90;39.30;;;;;;5010917;28;20409;-76
2021/06/07 08:52:31;;;;;;;51.42;36.80;;;20.80;39.70;;;;;;5009582;28;20397;-77
2021/06/07 08:54:57;;;;;;;46.30;34.17;;;20.80;39.20;;;;;;4988695;28;20399;-76
2021/06/07 08:57:24;;;;;;;44.10;33.30;;;20.80;38.30;;;;;;4994562;28;20922;-74
2021/06/07 08:59:50;;;;;;;44.65;30.73;;;20.90;39.00;;;;;;4977059;28;20431;-78
2021/06/07 09:02:16;;;;;;;41.70;32.58;;;20.90;36.90;;;;;;4990486;28;20399;-76
2021/06/07 09:04:51;;;;;;;48.87;33.97;;;20.90;38.00;;;;;;4990383;28;20477;-76
2021/06/07 09:07:17;;;;;;;46.50;35.08;;;20.80;38.70;;;;;;4991142;28;20378;-76
2021/06/07 09:10:07;;;;;;;42.78;32.70;;;20.80;39.40;;;;;;4975454;28;20412;-76
2021/06/07 09:12:33;;;;;;;42.78;31.85;;;20.90;37.80;;;;;;4987828;28;20379;-75
2021/06/07 09:14:59;;;;;;;45.97;31.20;;;21.00;38.10;;;;;;4993712;28;20887;-77
2021/06/07 09:17:25;;;;;;;46.97;32.53;;;21.20;36.90;;;;;;4993517;28;20394;-77
2021/06/07 09:20:27;;;;;;;46.08;32.72;;;21.60;35.50;;;;;;4994152;28;20689;-76
2021/06/07 09:22:56;;;;;;;42.80;31.20;;;22.40;31.90;;;;;;4899625;29;20493;-77
2021/06/07 09:25:27;;;;;;;40.08;27.15;;;22.70;29.80;;;;;;4980956;28;20398;-74
2021/06/07 09:28:07;;;;;;;28.50;22.40;;;22.70;29.80;;;;;;4994295;28;20437;-76
2021/06/07 09:30:46;;;;;;;32.58;23.48;;;22.40;30.90;;;;;;4977049;28;20410;-76
2021/06/07 09:33:36;;;;;;;25.00;20.30;;;22.40;30.40;;;;;;4994422;28;20389;-76
2021/06/07 09:36:08;;;;;;;35.47;27.67;;;22.00;30.50;;;;;;4994134;28;20444;-77
2021/06/07 09:38:50;;;;;;;42.42;31.92;;;21.60;32.80;;;;;;4994417;28;20413;-75
2021/06/07 09:41:15;;;;;;;42.72;31.30;;;20.90;35.70;;;;;;4994429;28;20779;-75
2021/06/07 09:43:59;;;;;;;43.33;31.53;;;20.60;37.20;;;;;;4993935;28;20405;-76
2021/06/07 09:46:26;;;;;;;47.25;27.95;;;20.60;37.20;;;;;;4994150;28;20464;-76
2021/06/07 09:49:08;;;;;;;41.00;28.10;;;20.30;36.50;;;;;;4994527;28;20731;-76
2021/06/07 09:51:34;;;;;;;33.00;24.75;;;20.20;38.10;;;;;;4994063;28;20432;-77
2021/06/07 09:54:00;;;;;;;36.55;26.02;;;20.10;38.10;;;;;;4993159;28;20527;-77
2021/06/07 09:56:26;;;;;;;34.93;25.77;;;20.10;39.70;;;;;;4994699;28;20390;-77
2021/06/07 09:58:52;;;;;;;37.55;26.38;;;20.20;39.30;;;;;;4995150;28;20445;-76
2021/06/07 10:01:20;;;;;;;33.78;26.10;;;20.20;38.70;;;;;;4993917;28;20867;-76
2021/06/07 10:03:51;;;;;;;38.10;27.40;;;20.50;37.20;;;;;;4994118;28;20465;-77
2021/06/07 10:06:33;;;;;;;31.50;24.40;;;20.60;36.70;;;;;;4993915;28;20464;-76
2021/06/07 10:09:00;;;;;;;32.53;24.60;;;20.50;36.60;;;;;;4983243;28;20400;-76
2021/06/07 10:11:37;;;;;;;31.25;23.75;;;20.70;36.20;;;;;;4989431;28;20516;-75
2021/06/07 10:14:06;;;;;;;35.88;23.80;;;20.70;36.50;;;;;;4993764;28;20387;-75
2021/06/07 10:16:32;;;;;;;28.55;21.75;;;20.90;35.70;;;;;;4976121;28;20752;-77
2021/06/07 10:19:03;;;;;;;33.50;23.60;;;21.10;34.10;;;;;;4993270;28;20404;-78
2021/06/07 10:21:28;;;;;;;31.83;21.97;;;21.20;33.70;;;;;;4993510;28;20405;-78
2021/06/07 10:23:54;;;;;;;29.17;22.77;;;21.50;32.90;;;;;;4991832;28;20809;-76
2021/06/07 10:26:20;;;;;;;29.15;23.95;;;21.40;32.50;;;;;;4991951;28;20448;-76
2021/06/07 10:28:52;;;;;;;30.27;24.63;;;21.30;33.30;;;;;;4993623;28;20864;-76
2021/06/07 10:31:19;;;;;;;31.02;25.90;;;21.20;32.70;;;;;;4993274;28;20406;-76
2021/06/07 10:34:03;;;;;;;35.72;27.23;;;20.90;33.80;;;;;;4992702;28;20398;-76
2021/06/07 10:36:32;;;;;;;28.00;21.42;;;20.60;35.20;;;;;;4993313;28;20966;-76
2021/06/07 10:39:17;;;;;;;27.73;21.08;;;20.30;37.70;;;;;;4993549;28;20391;-76
2021/06/07 10:41:44;;;;;;;27.05;21.25;;;20.30;37.70;;;;;;4992166;28;20857;-77
2021/06/07 10:44:11;;;;;;;26.58;21.25;;;20.20;38.30;;;;;;4992806;28;20452;-77
2021/06/07 10:46:40;;;;;;;27.77;20.48;;;20.20;38.80;;;;;;4993027;28;20398;-77
2021/06/07 10:49:36;;;;;;;25.53;21.23;;;20.20;38.30;;;;;;4993094;28;20393;-75
2021/06/07 10:52:27;;;;;;;28.60;21.30;;;20.30;38.30;;;;;;4993411;28;20387;-78
2021/06/07 10:55:04;;;;;;;27.02;21.77;;;20.40;36.90;;;;;;4975453;28;20494;-75
2021/06/07 10:57:40;;;;;;;26.57;20.77;;;20.60;36.50;;;;;;4975464;28;20390;-77
2021/06/07 11:00:14;;;;;;;27.70;19.90;;;20.90;36.10;;;;;;4992917;28;20418;-77
2021/06/07 11:02:44;;;;;;;28.15;19.80;;;21.20;34.30;;;;;;4992668;28;20474;-77
2021/06/07 11:05:27;;;;;;;23.55;20.33;;;21.30;34.50;;;;;;4987717;28;20398;-75
2021/06/07 11:08:05;;;;;;;21.80;18.52;;;21.50;33.30;;;;;;4992447;28;20400;-76
2021/06/07 11:10:39;;;;;;;28.13;20.02;;;21.60;31.20;;;;;;4972826;28;20487;-77
2021/06/07 11:13:17;;;;;;;21.90;19.50;;;21.60;31.60;;;;;;4992407;28;20401;-77
2021/06/07 11:15:53;;;;;;;22.00;19.65;;;21.70;31.60;;;;;;4993085;28;20374;-77
2021/06/07 11:18:26;;;;;;;23.95;19.60;;;21.80;30.40;;;;;;4992869;28;20383;-76
2021/06/07 11:21:21;;;;;;;22.13;17.88;;;21.80;31.70;;;;;;4992438;28;20390;-75
2021/06/07 11:23:46;;;;;;;18.40;15.57;;;21.80;31.30;;;;;;4950950;28;20769;-76
2021/06/07 11:26:18;;;;;;;18.60;16.60;;;21.60;30.90;;;;;;4993362;28;20430;-77
2021/06/07 11:28:49;;;;;;;20.53;17.60;;;21.50;31.40;;;;;;4994993;28;20405;-76
2021/06/07 11:31:14;;;;;;;23.15;19.05;;;21.40;31.80;;;;;;4991716;28;20416;-78
2021/06/07 11:33:59;;;;;;;21.85;17.80;;;21.30;32.00;;;;;;4992287;28;20473;-78
2021/06/07 11:36:49;;;;;;;19.67;17.20;;;21.30;32.50;;;;;;4972720;28;20392;-76
2021/06/07 11:39:17;;;;;;;22.30;17.25;;;21.00;33.00;;;;;;4973651;28;20376;-75
2021/06/07 11:41:59;;;;;;;23.15;17.63;;;20.70;34.50;;;;;;4972624;28;20391;-76
2021/06/07 11:44:53;;;;;;;24.95;17.52;;;20.60;35.80;;;;;;4983836;28;20402;-75
2021/06/07 11:47:49;;;;;;;23.50;17.48;;;20.40;36.70;;;;;;4967982;28;20428;-77
2021/06/07 11:50:30;;;;;;;23.80;18.52;;;20.30;36.80;;;;;;4978091;28;20468;-77
2021/06/07 11:53:08;;;;;;;23.48;19.20;;;20.20;37.60;;;;;;4974011;28;20477;-76
2021/06/07 11:55:34;;;;;;;24.05;18.20;;;20.00;37.20;;;;;;4992163;28;20398;-76
2021/06/07 11:58:16;;;;;;;23.73;18.10;;;20.10;37.70;;;;;;4991815;28;20398;-77
2021/06/07 12:00:45;;;;;;;22.80;17.38;;;20.10;38.00;;;;;;4991906;28;20409;-77
2021/06/07 12:03:14;;;;;;;18.30;16.30;;;20.30;37.60;;;;;;4973855;28;20472;-76
2021/06/07 12:05:41;;;;;;;20.73;15.90;;;20.40;37.30;;;;;;4991474;28;20405;-76
2021/06/07 12:08:09;;;;;;;19.90;15.50;;;20.30;37.10;;;;;;4988930;28;20414;-76
2021/06/07 12:10:36;;;;;;;22.23;14.75;;;20.40;36.70;;;;;;4972901;28;20446;-76
2021/06/07 12:13:30;;;;;;;21.88;16.30;;;20.30;36.20;;;;;;4991571;28;20386;-76
2021/06/07 12:15:59;;;;;;;16.30;14.52;;;20.40;36.00;;;;;;4971956;28;20405;-76
2021/06/07 12:18:44;;;;;;;20.88;15.25;;;20.50;35.30;;;;;;4991799;28;20401;-77
2021/06/07 12:21:19;;;;;;;19.25;14.98;;;20.70;34.80;;;;;;4993108;28;20394;-75
2021/06/07 12:24:01;;;;;;;17.33;13.68;;;20.90;34.00;;;;;;4992426;28;20897;-77
2021/06/07 12:29:29;;;;;;;19.02;15.90;;;20.70;34.10;;;;;;4992630;28;20389;-76
2021/06/07 12:32:17;;;;;;;22.02;15.35;;;20.80;33.50;;;;;;4991492;28;20412;-75
2021/06/07 12:35:15;;;;;;;17.95;14.75;;;21.10;33.70;;;;;;4986618;28;20956;-76
2021/06/07 12:38:01;;;;;;;18.52;14.63;;;21.40;32.70;;;;;;4985358;28;20450;-76
2021/06/07 12:40:28;;;;;;;18.55;15.10;;;21.50;31.40;;;;;;4958584;28;20975;-76